sensor_id;sensor_type;location;lat;lon;timestamp;temperature;humidity
61016;DHT22;46902;52.920;6.536;2023-03-05T00:01:14;4.50;99.90
61016;DHT22;46902;52.920;6.536;2023-03-05T00:03:40;4.60;99.90
61016;DHT22;46902;52.920;6.536;2023-03-05T00:06:06;4.50;99.90
61016;DHT22;46902;52.920;6.536;2023-03-05T00:08:32;4.50;99.90
61016;DHT22;46902;52.920;6.536;2023-03-05T00:10:59;4.50;99.90
61016;DHT22;46902;52.920;6.536;2023-03-05T00:13:26;4.60;99.90
61016;DHT22;46902;52.920;6.536;2023-03-05T00:15:52;4.60;99.90
61016;DHT22;46902;52.920;6.536;2023-03-05T00:18:19;4.60;99.90
61016;DHT22;46902;52.920;6.536;2023-03-05T00:20:47;4.60;99.90
61016;DHT22;46902;52.920;6.536;2023-03-05T00:23:14;4.60;99.90
61016;DHT22;46902;52.920;6.536;2023-03-05T00:25:40;4.60;99.90
61016;DHT22;46902;52.920;6.536;2023-03-05T00:28:06;4.60;99.90
61016;DHT22;46902;52.920;6.536;2023-03-05T00:30:33;4.60;99.90
61016;DHT22;46902;52.920;6.536;2023-03-05T00:32:59;4.60;99.90
61016;DHT22;46902;52.920;6.536;2023-03-05T00:35:25;4.60;99.90
61016;DHT22;46902;52.920;6.536;2023-03-05T00:37:51;4.60;99.90
61016;DHT22;46902;52.920;6.536;2023-03-05T00:40:17;4.50;99.90
61016;DHT22;46902;52.920;6.536;2023-03-05T00:42:43;4.50;99.90
61016;DHT22;46902;52.920;6.536;2023-03-05T00:45:09;4.50;99.90
61016;DHT22;46902;52.920;6.536;2023-03-05T00:47:35;4.50;99.90
61016;DHT22;46902;52.920;6.536;2023-03-05T00:50:02;4.50;99.90
61016;DHT22;46902;52.920;6.536;2023-03-05T00:52:28;4.50;99.90
61016;DHT22;46902;52.920;6.536;2023-03-05T00:54:53;4.50;99.90
61016;DHT22;46902;52.920;6.536;2023-03-05T00:57:19;4.50;99.90
61016;DHT22;46902;52.920;6.536;2023-03-05T00:59:44;4.50;99.90
61016;DHT22;46902;52.920;6.536;2023-03-05T01:02:11;4.50;99.90
61016;DHT22;46902;52.920;6.536;2023-03-05T01:04:37;4.40;99.90
61016;DHT22;46902;52.920;6.536;2023-03-05T01:07:03;4.30;99.90
61016;DHT22;46902;52.920;6.536;2023-03-05T01:09:29;4.30;99.90
61016;DHT22;46902;52.920;6.536;2023-03-05T01:11:55;4.30;99.90
61016;DHT22;46902;52.920;6.536;2023-03-05T01:14:20;4.30;99.90
61016;DHT22;46902;52.920;6.536;2023-03-05T01:16:46;4.30;99.90
61016;DHT22;46902;52.920;6.536;2023-03-05T01:19:14;4.20;99.90
61016;DHT22;46902;52.920;6.536;2023-03-05T01:21:40;4.20;99.90
61016;DHT22;46902;52.920;6.536;2023-03-05T01:24:06;4.20;99.90
61016;DHT22;46902;52.920;6.536;2023-03-05T01:26:32;4.20;99.90
61016;DHT22;46902;52.920;6.536;2023-03-05T01:28:58;4.20;99.90
61016;DHT22;46902;52.920;6.536;2023-03-05T01:31:23;4.20;99.90
61016;DHT22;46902;52.920;6.536;2023-03-05T01:33:53;4.30;99.90
61016;DHT22;46902;52.920;6.536;2023-03-05T01:36:20;4.20;99.90
61016;DHT22;46902;52.920;6.536;2023-03-05T01:38:46;4.20;99.90
61016;DHT22;46902;52.920;6.536;2023-03-05T01:41:15;4.20;99.90
61016;DHT22;46902;52.920;6.536;2023-03-05T01:43:42;4.20;99.90
61016;DHT22;46902;52.920;6.536;2023-03-05T01:51:23;4.10;99.90
61016;DHT22;46902;52.920;6.536;2023-03-05T01:53:49;4.10;99.90
61016;DHT22;46902;52.920;6.536;2023-03-05T01:56:15;4.10;99.90
61016;DHT22;46902;52.920;6.536;2023-03-05T01:58:42;4.10;99.90
61016;DHT22;46902;52.920;6.536;2023-03-05T02:01:08;4.10;99.90
61016;DHT22;46902;52.920;6.536;2023-03-05T02:03:34;4.10;99.90
61016;DHT22;46902;52.920;6.536;2023-03-05T02:06:01;4.00;99.90
61016;DHT22;46902;52.920;6.536;2023-03-05T02:08:26;4.00;99.90
61016;DHT22;46902;52.920;6.536;2023-03-05T02:10:54;4.10;99.90
61016;DHT22;46902;52.920;6.536;2023-03-05T02:13:27;4.10;99.90
61016;DHT22;46902;52.920;6.536;2023-03-05T02:15:55;4.00;99.90
61016;DHT22;46902;52.920;6.536;2023-03-05T02:18:22;4.00;99.90
61016;DHT22;46902;52.920;6.536;2023-03-05T02:20:52;4.00;99.90
61016;DHT22;46902;52.920;6.536;2023-03-05T02:23:23;4.00;99.90
61016;DHT22;46902;52.920;6.536;2023-03-05T02:25:49;4.00;99.90
61016;DHT22;46902;52.920;6.536;2023-03-05T02:28:23;3.90;99.90
61016;DHT22;46902;52.920;6.536;2023-03-05T02:30:50;3.90;99.90
61016;DHT22;46902;52.920;6.536;2023-03-05T02:33:17;3.90;99.90
61016;DHT22;46902;52.920;6.536;2023-03-05T02:35:43;3.90;99.90
61016;DHT22;46902;52.920;6.536;2023-03-05T02:38:11;3.90;99.90
61016;DHT22;46902;52.920;6.536;2023-03-05T02:40:37;3.90;99.90
61016;DHT22;46902;52.920;6.536;2023-03-05T02:43:02;3.90;99.90
61016;DHT22;46902;52.920;6.536;2023-03-05T02:45:28;3.90;99.90
61016;DHT22;46902;52.920;6.536;2023-03-05T02:47:53;3.80;99.90
61016;DHT22;46902;52.920;6.536;2023-03-05T02:50:22;3.90;99.90
61016;DHT22;46902;52.920;6.536;2023-03-05T02:52:48;3.80;99.90
61016;DHT22;46902;52.920;6.536;2023-03-05T02:55:14;3.80;99.90
61016;DHT22;46902;52.920;6.536;2023-03-05T02:57:40;3.80;99.90
61016;DHT22;46902;52.920;6.536;2023-03-05T03:00:06;3.80;99.90
61016;DHT22;46902;52.920;6.536;2023-03-05T03:02:32;3.70;99.90
61016;DHT22;46902;52.920;6.536;2023-03-05T03:04:58;3.70;99.90
61016;DHT22;46902;52.920;6.536;2023-03-05T03:07:23;3.80;99.90
61016;DHT22;46902;52.920;6.536;2023-03-05T03:09:49;3.80;99.90
61016;DHT22;46902;52.920;6.536;2023-03-05T03:12:15;3.80;99.90
61016;DHT22;46902;52.920;6.536;2023-03-05T03:14:41;3.80;99.90
61016;DHT22;46902;52.920;6.536;2023-03-05T03:17:13;3.80;99.90
61016;DHT22;46902;52.920;6.536;2023-03-05T03:19:40;3.80;99.90
61016;DHT22;46902;52.920;6.536;2023-03-05T03:22:06;3.80;99.90
61016;DHT22;46902;52.920;6.536;2023-03-05T03:24:33;3.80;99.90
61016;DHT22;46902;52.920;6.536;2023-03-05T03:26:59;3.80;99.90
61016;DHT22;46902;52.920;6.536;2023-03-05T03:29:25;3.80;99.90
61016;DHT22;46902;52.920;6.536;2023-03-05T03:31:51;3.80;99.90
61016;DHT22;46902;52.920;6.536;2023-03-05T03:34:17;3.80;99.90
61016;DHT22;46902;52.920;6.536;2023-03-05T03:36:43;3.80;99.90
61016;DHT22;46902;52.920;6.536;2023-03-05T03:39:10;3.80;99.90
61016;DHT22;46902;52.920;6.536;2023-03-05T03:41:39;3.70;99.90
61016;DHT22;46902;52.920;6.536;2023-03-05T03:44:05;3.80;99.90
61016;DHT22;46902;52.920;6.536;2023-03-05T03:46:33;3.70;99.90
61016;DHT22;46902;52.920;6.536;2023-03-05T03:48:59;3.70;99.90
61016;DHT22;46902;52.920;6.536;2023-03-05T03:51:25;3.70;99.90
61016;DHT22;46902;52.920;6.536;2023-03-05T03:53:51;3.80;99.90
61016;DHT22;46902;52.920;6.536;2023-03-05T03:56:16;3.70;99.90
61016;DHT22;46902;52.920;6.536;2023-03-05T03:58:42;3.80;99.90
61016;DHT22;46902;52.920;6.536;2023-03-05T04:01:08;3.80;99.90
61016;DHT22;46902;52.920;6.536;2023-03-05T04:03:33;3.70;99.90
61016;DHT22;46902;52.920;6.536;2023-03-05T04:05:59;3.70;99.90
61016;DHT22;46902;52.920;6.536;2023-03-05T04:08:25;3.70;99.90
61016;DHT22;46902;52.920;6.536;2023-03-05T04:10:50;3.70;99.90
61016;DHT22;46902;52.920;6.536;2023-03-05T04:13:16;3.70;99.90
61016;DHT22;46902;52.920;6.536;2023-03-05T04:15:42;3.70;99.90
61016;DHT22;46902;52.920;6.536;2023-03-05T04:18:08;3.70;99.90
61016;DHT22;46902;52.920;6.536;2023-03-05T04:20:34;3.60;99.90
61016;DHT22;46902;52.920;6.536;2023-03-05T04:22:59;3.70;99.90
61016;DHT22;46902;52.920;6.536;2023-03-05T04:25:25;3.60;99.90
61016;DHT22;46902;52.920;6.536;2023-03-05T04:27:51;3.70;99.90
61016;DHT22;46902;52.920;6.536;2023-03-05T04:30:16;3.70;99.90
61016;DHT22;46902;52.920;6.536;2023-03-05T04:32:42;3.70;99.90
61016;DHT22;46902;52.920;6.536;2023-03-05T04:35:08;3.70;99.90
61016;DHT22;46902;52.920;6.536;2023-03-05T04:37:34;3.70;99.90
61016;DHT22;46902;52.920;6.536;2023-03-05T04:39:59;3.70;99.90
61016;DHT22;46902;52.920;6.536;2023-03-05T04:42:25;3.60;99.90
61016;DHT22;46902;52.920;6.536;2023-03-05T04:44:51;3.70;99.90
61016;DHT22;46902;52.920;6.536;2023-03-05T04:47:17;3.70;99.90
61016;DHT22;46902;52.920;6.536;2023-03-05T04:49:43;3.70;99.90
61016;DHT22;46902;52.920;6.536;2023-03-05T04:52:11;3.70;99.90
61016;DHT22;46902;52.920;6.536;2023-03-05T04:54:37;3.60;99.90
61016;DHT22;46902;52.920;6.536;2023-03-05T04:57:03;3.60;99.90
61016;DHT22;46902;52.920;6.536;2023-03-05T04:59:28;3.70;99.90
61016;DHT22;46902;52.920;6.536;2023-03-05T05:01:54;3.70;99.90
61016;DHT22;46902;52.920;6.536;2023-03-05T05:04:20;3.60;99.90
61016;DHT22;46902;52.920;6.536;2023-03-05T05:06:45;3.70;99.90
61016;DHT22;46902;52.920;6.536;2023-03-05T05:09:11;3.70;99.90
61016;DHT22;46902;52.920;6.536;2023-03-05T05:11:37;3.60;99.90
61016;DHT22;46902;52.920;6.536;2023-03-05T05:14:03;3.60;99.90
61016;DHT22;46902;52.920;6.536;2023-03-05T05:16:29;3.70;99.90
61016;DHT22;46902;52.920;6.536;2023-03-05T05:18:54;3.70;99.90
61016;DHT22;46902;52.920;6.536;2023-03-05T05:21:20;3.70;99.90
61016;DHT22;46902;52.920;6.536;2023-03-05T05:23:46;3.70;99.90
61016;DHT22;46902;52.920;6.536;2023-03-05T05:26:12;3.60;99.90
61016;DHT22;46902;52.920;6.536;2023-03-05T05:28:41;3.60;99.90
61016;DHT22;46902;52.920;6.536;2023-03-05T05:31:09;3.60;99.90
61016;DHT22;46902;52.920;6.536;2023-03-05T05:33:35;3.70;99.90
61016;DHT22;46902;52.920;6.536;2023-03-05T05:36:06;3.60;99.90
61016;DHT22;46902;52.920;6.536;2023-03-05T05:38:32;3.70;99.90
61016;DHT22;46902;52.920;6.536;2023-03-05T05:41:06;3.70;99.90
61016;DHT22;46902;52.920;6.536;2023-03-05T05:43:32;3.70;99.90
61016;DHT22;46902;52.920;6.536;2023-03-05T05:46:06;3.60;99.90
61016;DHT22;46902;52.920;6.536;2023-03-05T05:48:33;3.60;99.90
61016;DHT22;46902;52.920;6.536;2023-03-05T05:51:14;3.60;99.90
61016;DHT22;46902;52.920;6.536;2023-03-05T05:53:40;3.60;99.90
61016;DHT22;46902;52.920;6.536;2023-03-05T05:56:07;3.70;99.90
61016;DHT22;46902;52.920;6.536;2023-03-05T05:58:35;3.60;99.90
61016;DHT22;46902;52.920;6.536;2023-03-05T06:01:01;3.60;99.90
61016;DHT22;46902;52.920;6.536;2023-03-05T06:03:26;3.60;99.90
61016;DHT22;46902;52.920;6.536;2023-03-05T06:05:52;3.50;99.90
61016;DHT22;46902;52.920;6.536;2023-03-05T06:08:18;3.50;99.90
61016;DHT22;46902;52.920;6.536;2023-03-05T06:10:44;3.50;99.90
61016;DHT22;46902;52.920;6.536;2023-03-05T06:13:09;3.60;99.90
61016;DHT22;46902;52.920;6.536;2023-03-05T06:15:35;3.60;99.90
61016;DHT22;46902;52.920;6.536;2023-03-05T06:18:01;3.60;99.90
61016;DHT22;46902;52.920;6.536;2023-03-05T06:20:27;3.60;99.90
61016;DHT22;46902;52.920;6.536;2023-03-05T06:22:56;3.60;99.90
61016;DHT22;46902;52.920;6.536;2023-03-05T06:25:21;3.60;99.90
61016;DHT22;46902;52.920;6.536;2023-03-05T06:27:47;3.60;99.90
61016;DHT22;46902;52.920;6.536;2023-03-05T06:30:13;3.60;99.90
61016;DHT22;46902;52.920;6.536;2023-03-05T06:32:38;3.60;99.90
61016;DHT22;46902;52.920;6.536;2023-03-05T06:35:04;3.60;99.90
61016;DHT22;46902;52.920;6.536;2023-03-05T06:37:30;3.60;99.90
61016;DHT22;46902;52.920;6.536;2023-03-05T06:39:56;3.70;99.90
61016;DHT22;46902;52.920;6.536;2023-03-05T06:42:21;3.70;99.90
61016;DHT22;46902;52.920;6.536;2023-03-05T06:44:47;3.70;99.90
61016;DHT22;46902;52.920;6.536;2023-03-05T06:47:12;3.60;99.90
61016;DHT22;46902;52.920;6.536;2023-03-05T06:49:39;3.70;99.90
61016;DHT22;46902;52.920;6.536;2023-03-05T06:52:05;3.60;99.90
61016;DHT22;46902;52.920;6.536;2023-03-05T06:54:31;3.60;99.90
61016;DHT22;46902;52.920;6.536;2023-03-05T06:56:57;3.60;99.90
61016;DHT22;46902;52.920;6.536;2023-03-05T06:59:23;3.60;99.90
61016;DHT22;46902;52.920;6.536;2023-03-05T07:01:48;3.60;99.90
61016;DHT22;46902;52.920;6.536;2023-03-05T07:04:14;3.60;99.90
61016;DHT22;46902;52.920;6.536;2023-03-05T07:06:41;3.60;99.90
61016;DHT22;46902;52.920;6.536;2023-03-05T07:09:10;3.60;99.90
61016;DHT22;46902;52.920;6.536;2023-03-05T07:11:36;3.60;99.90
61016;DHT22;46902;52.920;6.536;2023-03-05T07:14:02;3.60;99.90
61016;DHT22;46902;52.920;6.536;2023-03-05T07:16:30;3.60;99.90
61016;DHT22;46902;52.920;6.536;2023-03-05T07:18:58;3.70;99.90
61016;DHT22;46902;52.920;6.536;2023-03-05T07:21:26;3.70;99.90
61016;DHT22;46902;52.920;6.536;2023-03-05T07:23:53;3.70;99.90
61016;DHT22;46902;52.920;6.536;2023-03-05T07:26:20;3.70;99.90
61016;DHT22;46902;52.920;6.536;2023-03-05T07:28:45;3.70;99.90
61016;DHT22;46902;52.920;6.536;2023-03-05T07:31:14;3.70;99.90
61016;DHT22;46902;52.920;6.536;2023-03-05T07:33:40;3.70;99.90
61016;DHT22;46902;52.920;6.536;2023-03-05T07:36:10;3.80;99.90
61016;DHT22;46902;52.920;6.536;2023-03-05T07:38:36;3.80;99.90
61016;DHT22;46902;52.920;6.536;2023-03-05T07:41:07;3.90;99.90
61016;DHT22;46902;52.920;6.536;2023-03-05T07:43:33;3.90;99.90
61016;DHT22;46902;52.920;6.536;2023-03-05T07:46:02;3.90;99.90
61016;DHT22;46902;52.920;6.536;2023-03-05T07:48:28;4.00;99.90
61016;DHT22;46902;52.920;6.536;2023-03-05T07:51:09;4.00;99.90
61016;DHT22;46902;52.920;6.536;2023-03-05T07:53:35;4.10;99.90
61016;DHT22;46902;52.920;6.536;2023-03-05T07:56:01;4.10;99.90
61016;DHT22;46902;52.920;6.536;2023-03-05T07:58:26;4.10;99.90
61016;DHT22;46902;52.920;6.536;2023-03-05T08:00:52;4.20;99.90
61016;DHT22;46902;52.920;6.536;2023-03-05T08:03:17;4.20;99.90
61016;DHT22;46902;52.920;6.536;2023-03-05T08:05:44;4.30;99.90
61016;DHT22;46902;52.920;6.536;2023-03-05T08:08:10;4.30;99.90
61016;DHT22;46902;52.920;6.536;2023-03-05T08:10:36;4.40;99.90
61016;DHT22;46902;52.920;6.536;2023-03-05T08:13:02;4.40;99.90
61016;DHT22;46902;52.920;6.536;2023-03-05T08:15:28;4.40;99.90
61016;DHT22;46902;52.920;6.536;2023-03-05T08:17:56;4.50;99.90
61016;DHT22;46902;52.920;6.536;2023-03-05T08:20:22;4.50;99.90
61016;DHT22;46902;52.920;6.536;2023-03-05T08:22:48;4.60;99.90
61016;DHT22;46902;52.920;6.536;2023-03-05T08:25:13;4.70;99.90
61016;DHT22;46902;52.920;6.536;2023-03-05T08:27:43;4.70;99.90
61016;DHT22;46902;52.920;6.536;2023-03-05T08:30:17;4.80;99.90
61016;DHT22;46902;52.920;6.536;2023-03-05T08:32:43;4.90;99.90
61016;DHT22;46902;52.920;6.536;2023-03-05T08:35:09;5.00;99.90
61016;DHT22;46902;52.920;6.536;2023-03-05T08:37:35;5.00;99.90
61016;DHT22;46902;52.920;6.536;2023-03-05T08:40:02;5.10;99.90
61016;DHT22;46902;52.920;6.536;2023-03-05T08:42:28;5.20;99.90
61016;DHT22;46902;52.920;6.536;2023-03-05T08:44:54;5.60;99.90
61016;DHT22;46902;52.920;6.536;2023-03-05T08:47:19;6.00;99.90
61016;DHT22;46902;52.920;6.536;2023-03-05T08:49:45;6.50;99.90
61016;DHT22;46902;52.920;6.536;2023-03-05T08:52:11;7.10;99.90
61016;DHT22;46902;52.920;6.536;2023-03-05T08:54:37;7.50;99.90
61016;DHT22;46902;52.920;6.536;2023-03-05T08:57:03;8.00;99.90
61016;DHT22;46902;52.920;6.536;2023-03-05T08:59:29;8.40;99.90
61016;DHT22;46902;52.920;6.536;2023-03-05T09:01:58;8.70;99.90
61016;DHT22;46902;52.920;6.536;2023-03-05T09:04:24;8.80;99.90
61016;DHT22;46902;52.920;6.536;2023-03-05T09:06:50;8.90;99.90
61016;DHT22;46902;52.920;6.536;2023-03-05T09:09:15;9.00;99.90
61016;DHT22;46902;52.920;6.536;2023-03-05T09:11:41;9.20;99.90
61016;DHT22;46902;52.920;6.536;2023-03-05T09:14:07;9.70;99.90
61016;DHT22;46902;52.920;6.536;2023-03-05T09:16:32;10.10;99.90
61016;DHT22;46902;52.920;6.536;2023-03-05T09:18:58;10.70;99.00
61016;DHT22;46902;52.920;6.536;2023-03-05T09:21:24;11.20;97.70
61016;DHT22;46902;52.920;6.536;2023-03-05T09:23:50;11.60;96.60
61016;DHT22;46902;52.920;6.536;2023-03-05T09:26:17;11.90;95.20
61016;DHT22;46902;52.920;6.536;2023-03-05T09:28:46;12.20;93.50
61016;DHT22;46902;52.920;6.536;2023-03-05T09:31:12;12.40;92.40
61016;DHT22;46902;52.920;6.536;2023-03-05T09:33:38;12.50;91.80
61016;DHT22;46902;52.920;6.536;2023-03-05T09:36:12;12.70;91.20
61016;DHT22;46902;52.920;6.536;2023-03-05T09:38:40;13.10;90.60
61016;DHT22;46902;52.920;6.536;2023-03-05T09:44:21;14.00;86.20
61016;DHT22;46902;52.920;6.536;2023-03-05T09:46:53;14.10;82.80
61016;DHT22;46902;52.920;6.536;2023-03-05T09:49:56;13.90;80.70
61016;DHT22;46902;52.920;6.536;2023-03-05T09:52:33;13.80;78.20
61016;DHT22;46902;52.920;6.536;2023-03-05T09:55:00;13.60;78.60
61016;DHT22;46902;52.920;6.536;2023-03-05T09:57:45;13.40;80.10
61016;DHT22;46902;52.920;6.536;2023-03-05T10:00:37;13.80;76.80
61016;DHT22;46902;52.920;6.536;2023-03-05T10:03:05;13.70;74.40
61016;DHT22;46902;52.920;6.536;2023-03-05T10:06:05;13.20;75.70
61016;DHT22;46902;52.920;6.536;2023-03-05T10:08:46;12.20;76.50
61016;DHT22;46902;52.920;6.536;2023-03-05T10:11:44;11.10;79.00
61016;DHT22;46902;52.920;6.536;2023-03-05T10:14:22;10.30;81.40
61016;DHT22;46902;52.920;6.536;2023-03-05T10:22:27;9.70;84.40
61016;DHT22;46902;52.920;6.536;2023-03-05T10:27:54;9.10;85.50
61016;DHT22;46902;52.920;6.536;2023-03-05T10:33:24;8.70;87.50
61016;DHT22;46902;52.920;6.536;2023-03-05T10:36:18;8.50;88.20
61016;DHT22;46902;52.920;6.536;2023-03-05T10:39:13;8.80;88.00
61016;DHT22;46902;52.920;6.536;2023-03-05T10:41:57;9.30;86.00
61016;DHT22;46902;52.920;6.536;2023-03-05T10:44:54;9.70;86.00
61016;DHT22;46902;52.920;6.536;2023-03-05T10:47:27;9.60;86.40
61016;DHT22;46902;52.920;6.536;2023-03-05T10:49:55;9.20;88.50
61016;DHT22;46902;52.920;6.536;2023-03-05T10:52:42;8.60;90.20
61016;DHT22;46902;52.920;6.536;2023-03-05T10:55:20;8.20;91.10
61016;DHT22;46902;52.920;6.536;2023-03-05T10:57:46;7.90;92.10
61016;DHT22;46902;52.920;6.536;2023-03-05T11:03:12;7.70;93.40
61016;DHT22;46902;52.920;6.536;2023-03-05T11:13:36;8.20;93.10
61016;DHT22;46902;52.920;6.536;2023-03-05T11:16:05;8.40;93.00
61016;DHT22;46902;52.920;6.536;2023-03-05T11:18:33;8.90;92.50
61016;DHT22;46902;52.920;6.536;2023-03-05T11:21:25;9.50;92.00
61016;DHT22;46902;52.920;6.536;2023-03-05T11:24:22;9.90;90.70
61016;DHT22;46902;52.920;6.536;2023-03-05T11:26:52;10.30;91.00
61016;DHT22;46902;52.920;6.536;2023-03-05T11:29:23;10.60;90.40
61016;DHT22;46902;52.920;6.536;2023-03-05T11:31:50;11.00;90.50
61016;DHT22;46902;52.920;6.536;2023-03-05T11:39:24;11.50;87.60
61016;DHT22;46902;52.920;6.536;2023-03-05T11:42:16;11.30;86.60
61016;DHT22;46902;52.920;6.536;2023-03-05T11:44:51;11.40;85.40
61016;DHT22;46902;52.920;6.536;2023-03-05T11:47:38;11.40;85.30
61016;DHT22;46902;52.920;6.536;2023-03-05T11:50:27;11.50;85.50
61016;DHT22;46902;52.920;6.536;2023-03-05T11:52:57;11.40;84.10
61016;DHT22;46902;52.920;6.536;2023-03-05T11:55:32;11.10;85.60
61016;DHT22;46902;52.920;6.536;2023-03-05T12:00:48;10.30;87.00
61016;DHT22;46902;52.920;6.536;2023-03-05T12:03:16;10.00;88.60
61016;DHT22;46902;52.920;6.536;2023-03-05T12:05:45;9.80;89.00
61016;DHT22;46902;52.920;6.536;2023-03-05T12:08:14;9.70;89.80
61016;DHT22;46902;52.920;6.536;2023-03-05T12:10:44;9.70;90.10
61016;DHT22;46902;52.920;6.536;2023-03-05T12:13:27;9.70;90.30
61016;DHT22;46902;52.920;6.536;2023-03-05T12:23:49;10.80;87.00
61016;DHT22;46902;52.920;6.536;2023-03-05T12:26:15;11.00;85.20
61016;DHT22;46902;52.920;6.536;2023-03-05T12:37:13;10.00;86.20
61016;DHT22;46902;52.920;6.536;2023-03-05T12:47:37;9.00;90.70
61016;DHT22;46902;52.920;6.536;2023-03-05T12:50:03;9.00;91.30
61016;DHT22;46902;52.920;6.536;2023-03-05T12:52:31;9.00;91.10
61016;DHT22;46902;52.920;6.536;2023-03-05T12:55:23;9.30;90.90
61016;DHT22;46902;52.920;6.536;2023-03-05T12:58:02;9.90;89.10
61016;DHT22;46902;52.920;6.536;2023-03-05T13:00:58;10.00;87.60
61016;DHT22;46902;52.920;6.536;2023-03-05T13:03:49;9.90;87.30
61016;DHT22;46902;52.920;6.536;2023-03-05T13:08:59;9.40;88.70
61016;DHT22;46902;52.920;6.536;2023-03-05T13:11:27;9.20;88.70
61016;DHT22;46902;52.920;6.536;2023-03-05T13:13:53;8.90;89.00
61016;DHT22;46902;52.920;6.536;2023-03-05T13:16:24;8.80;89.50
61016;DHT22;46902;52.920;6.536;2023-03-05T13:18:52;8.80;89.60
61016;DHT22;46902;52.920;6.536;2023-03-05T13:21:19;8.80;90.00
61016;DHT22;46902;52.920;6.536;2023-03-05T13:23:53;8.70;90.10
61016;DHT22;46902;52.920;6.536;2023-03-05T13:26:37;8.70;90.10
61016;DHT22;46902;52.920;6.536;2023-03-05T13:31:55;8.70;90.20
61016;DHT22;46902;52.920;6.536;2023-03-05T13:36:59;8.70;90.40
61016;DHT22;46902;52.920;6.536;2023-03-05T13:39:30;8.80;90.80
61016;DHT22;46902;52.920;6.536;2023-03-05T13:44:27;9.10;90.00
61016;DHT22;46902;52.920;6.536;2023-03-05T13:47:18;9.30;89.60
61016;DHT22;46902;52.920;6.536;2023-03-05T13:49:44;9.50;88.50
61016;DHT22;46902;52.920;6.536;2023-03-05T13:52:12;9.40;87.80
61016;DHT22;46902;52.920;6.536;2023-03-05T13:54:40;9.40;88.10
61016;DHT22;46902;52.920;6.536;2023-03-05T13:57:07;9.20;88.00
61016;DHT22;46902;52.920;6.536;2023-03-05T13:59:35;9.20;88.50
61016;DHT22;46902;52.920;6.536;2023-03-05T14:02:17;9.00;88.90
61016;DHT22;46902;52.920;6.536;2023-03-05T14:04:45;9.00;89.30
61016;DHT22;46902;52.920;6.536;2023-03-05T14:09:55;8.70;89.00
61016;DHT22;46902;52.920;6.536;2023-03-05T14:12:40;8.60;89.70
61016;DHT22;46902;52.920;6.536;2023-03-05T14:15:33;8.60;89.70
61016;DHT22;46902;52.920;6.536;2023-03-05T14:18:17;8.40;89.60
61016;DHT22;46902;52.920;6.536;2023-03-05T14:21:03;8.30;89.80
61016;DHT22;46902;52.920;6.536;2023-03-05T14:26:25;8.20;90.80
61016;DHT22;46902;52.920;6.536;2023-03-05T14:31:27;8.20;90.90
61016;DHT22;46902;52.920;6.536;2023-03-05T14:34:02;8.10;90.80
61016;DHT22;46902;52.920;6.536;2023-03-05T14:36:29;8.20;90.80
61016;DHT22;46902;52.920;6.536;2023-03-05T14:38:56;8.10;90.60
61016;DHT22;46902;52.920;6.536;2023-03-05T14:43:59;8.20;90.00
61016;DHT22;46902;52.920;6.536;2023-03-05T14:46:25;8.30;90.00
61016;DHT22;46902;52.920;6.536;2023-03-05T14:48:51;8.40;89.90
61016;DHT22;46902;52.920;6.536;2023-03-05T14:51:17;8.50;90.10
61016;DHT22;46902;52.920;6.536;2023-03-05T14:53:45;8.60;90.30
61016;DHT22;46902;52.920;6.536;2023-03-05T14:56:22;8.60;90.00
61016;DHT22;46902;52.920;6.536;2023-03-05T14:58:48;8.60;89.10
61016;DHT22;46902;52.920;6.536;2023-03-05T15:01:14;8.50;89.10
61016;DHT22;46902;52.920;6.536;2023-03-05T15:03:39;8.50;89.00
61016;DHT22;46902;52.920;6.536;2023-03-05T15:06:09;8.40;88.90
61016;DHT22;46902;52.920;6.536;2023-03-05T15:08:40;8.40;88.50
61016;DHT22;46902;52.920;6.536;2023-03-05T15:11:05;8.20;88.30
61016;DHT22;46902;52.920;6.536;2023-03-05T15:13:31;8.20;88.90
61016;DHT22;46902;52.920;6.536;2023-03-05T15:15:57;8.10;89.00
61016;DHT22;46902;52.920;6.536;2023-03-05T15:18:23;8.00;89.10
61016;DHT22;46902;52.920;6.536;2023-03-05T15:20:49;7.90;89.50
61016;DHT22;46902;52.920;6.536;2023-03-05T15:23:19;7.90;89.80
61016;DHT22;46902;52.920;6.536;2023-03-05T15:25:45;7.80;90.00
61016;DHT22;46902;52.920;6.536;2023-03-05T15:28:10;7.80;90.10
61016;DHT22;46902;52.920;6.536;2023-03-05T15:30:39;7.70;90.30
61016;DHT22;46902;52.920;6.536;2023-03-05T15:33:08;7.80;90.50
61016;DHT22;46902;52.920;6.536;2023-03-05T15:35:35;7.70;90.10
61016;DHT22;46902;52.920;6.536;2023-03-05T15:38:04;7.70;90.10
61016;DHT22;46902;52.920;6.536;2023-03-05T15:40:30;7.70;90.10
61016;DHT22;46902;52.920;6.536;2023-03-05T15:42:57;7.70;90.00
61016;DHT22;46902;52.920;6.536;2023-03-05T15:45:23;7.70;89.90
61016;DHT22;46902;52.920;6.536;2023-03-05T15:47:49;7.70;89.90
61016;DHT22;46902;52.920;6.536;2023-03-05T15:50:16;7.80;90.00
61016;DHT22;46902;52.920;6.536;2023-03-05T15:52:42;7.80;90.00
61016;DHT22;46902;52.920;6.536;2023-03-05T15:55:08;7.80;90.10
61016;DHT22;46902;52.920;6.536;2023-03-05T15:57:42;7.80;90.20
61016;DHT22;46902;52.920;6.536;2023-03-05T16:00:09;7.90;89.80
61016;DHT22;46902;52.920;6.536;2023-03-05T16:02:34;7.80;89.10
61016;DHT22;46902;52.920;6.536;2023-03-05T16:05:00;7.70;89.20
61016;DHT22;46902;52.920;6.536;2023-03-05T16:07:26;7.70;89.40
61016;DHT22;46902;52.920;6.536;2023-03-05T16:09:52;7.60;89.40
61016;DHT22;46902;52.920;6.536;2023-03-05T16:12:22;7.60;89.80
61016;DHT22;46902;52.920;6.536;2023-03-05T16:14:49;7.60;90.00
61016;DHT22;46902;52.920;6.536;2023-03-05T16:17:17;7.50;90.20
61016;DHT22;46902;52.920;6.536;2023-03-05T16:19:46;7.50;90.30
61016;DHT22;46902;52.920;6.536;2023-03-05T16:22:12;7.50;90.40
61016;DHT22;46902;52.920;6.536;2023-03-05T16:24:37;7.30;90.50
61016;DHT22;46902;52.920;6.536;2023-03-05T16:27:03;7.30;90.70
61016;DHT22;46902;52.920;6.536;2023-03-05T16:29:29;7.30;90.70
61016;DHT22;46902;52.920;6.536;2023-03-05T16:31:57;7.20;90.30
61016;DHT22;46902;52.920;6.536;2023-03-05T16:34:24;7.10;90.20
61016;DHT22;46902;52.920;6.536;2023-03-05T16:36:50;7.00;90.10
61016;DHT22;46902;52.920;6.536;2023-03-05T16:39:20;7.00;90.50
61016;DHT22;46902;52.920;6.536;2023-03-05T16:41:46;6.90;90.20
61016;DHT22;46902;52.920;6.536;2023-03-05T16:44:12;6.90;90.30
61016;DHT22;46902;52.920;6.536;2023-03-05T16:46:38;6.90;90.40
61016;DHT22;46902;52.920;6.536;2023-03-05T16:49:06;6.80;90.50
61016;DHT22;46902;52.920;6.536;2023-03-05T16:51:33;6.80;90.70
61016;DHT22;46902;52.920;6.536;2023-03-05T16:53:59;6.70;90.80
61016;DHT22;46902;52.920;6.536;2023-03-05T16:56:25;6.70;90.90
61016;DHT22;46902;52.920;6.536;2023-03-05T16:58:54;6.60;91.10
61016;DHT22;46902;52.920;6.536;2023-03-05T17:01:20;6.60;91.30
61016;DHT22;46902;52.920;6.536;2023-03-05T17:03:46;6.50;91.30
61016;DHT22;46902;52.920;6.536;2023-03-05T17:06:17;6.50;91.80
61016;DHT22;46902;52.920;6.536;2023-03-05T17:08:45;6.50;91.60
61016;DHT22;46902;52.920;6.536;2023-03-05T17:11:12;6.40;91.80
61016;DHT22;46902;52.920;6.536;2023-03-05T17:13:38;6.40;91.90
61016;DHT22;46902;52.920;6.536;2023-03-05T17:16:05;6.30;92.00
61016;DHT22;46902;52.920;6.536;2023-03-05T17:18:31;6.30;92.10